createdAt,value
2023-04-03T00:00:27.269Z,5.1
2023-04-03T00:02:33.560Z,7.3
2023-04-03T00:04:39.720Z,2.1
2023-04-03T00:11:16.039Z,13.1
2023-04-03T00:13:25.123Z,7.7
2023-04-03T00:15:31.307Z,12.8
2023-04-03T00:17:37.519Z,11.9
2023-04-03T00:19:43.652Z,3
2023-04-03T00:21:49.846Z,6.7
2023-04-03T00:23:56.040Z,3.8
2023-04-03T00:32:23.660Z,10.7
2023-04-03T00:40:48.330Z,10.1
2023-04-03T00:42:57.412Z,2.9
2023-04-03T00:45:03.599Z,3.6
2023-04-03T00:47:09.763Z,4.8
2023-04-03T00:51:22.130Z,3.6
2023-04-03T00:53:28.306Z,4.4
2023-04-03T00:55:34.501Z,7.6
2023-04-03T01:01:55.957Z,2.8
2023-04-03T01:03:00.497Z,19
2023-04-03T01:05:06.636Z,4.4
2023-04-03T01:17:46.559Z,5.4
2023-04-03T01:21:58.884Z,8
2023-04-03T01:24:05.017Z,6.4
2023-04-03T01:28:20.318Z,11
2023-04-03T01:30:26.413Z,3
2023-04-03T01:32:32.643Z,8.9
2023-04-03T01:34:38.789Z,4.2
2023-04-03T01:36:44.941Z,3.2
2023-04-03T01:38:51.085Z,11.7
2023-04-03T01:41:00.140Z,7.2
2023-04-03T01:43:06.324Z,3.2
2023-04-03T01:45:12.459Z,4.9
2023-04-03T01:47:18.634Z,8.3
2023-04-03T01:49:24.758Z,16.7
2023-04-03T01:51:30.920Z,7.4
2023-04-03T01:55:46.119Z,11.5
2023-04-03T01:57:52.297Z,8.6
2023-04-03T01:59:58.448Z,8.9
2023-04-03T02:01:02.987Z,11.8
2023-04-03T02:03:09.151Z,6
2023-04-03T02:05:15.296Z,5.1
2023-04-03T02:09:30.519Z,6.6
2023-04-03T02:11:36.610Z,6.9
2023-04-03T02:17:55.066Z,5.2
2023-04-03T02:20:01.220Z,6.2
2023-04-03T02:22:07.352Z,9.5
2023-04-03T02:24:16.477Z,7.9
2023-04-03T02:26:22.543Z,6
2023-04-03T02:28:28.647Z,14.2
2023-04-03T02:30:35.043Z,6.3
2023-04-03T02:32:40.976Z,9.3
2023-04-03T02:34:47.097Z,4.1
2023-04-03T02:36:53.216Z,3.9
2023-04-03T02:39:02.248Z,6.1
2023-04-03T02:41:08.417Z,8.6
2023-04-03T02:43:14.540Z,19.3
2023-04-03T02:47:26.825Z,11.8
2023-04-03T02:49:32.955Z,14.6
2023-04-03T02:58:00.413Z,8.3
2023-04-03T02:59:04.914Z,16.2
2023-04-03T03:03:17.172Z,17.6
2023-04-03T03:05:23.466Z,10
2023-04-03T03:07:32.303Z,16.5
2023-04-03T03:09:38.475Z,32.4
2023-04-03T03:11:46.138Z,27.7
2023-04-03T03:18:04.530Z,22.2
2023-04-03T03:20:10.636Z,22.2
2023-04-03T03:22:19.643Z,11.2
2023-04-03T03:26:31.901Z,10.9
2023-04-03T03:28:38.021Z,11
2023-04-03T03:30:44.128Z,22.3
2023-04-03T03:32:50.280Z,15.5
2023-04-03T03:43:23.730Z,20.7
2023-04-03T03:45:29.833Z,15.3
2023-04-03T03:47:35.997Z,11.4
2023-04-03T03:49:42.069Z,13.3
2023-04-03T03:53:57.184Z,13.3
2023-04-03T03:56:03.294Z,7.1
2023-04-03T04:02:41.610Z,18.9
2023-04-03T04:13:14.989Z,8
2023-04-03T04:15:21.101Z,24.9
2023-04-03T04:17:27.212Z,7.5
2023-04-03T04:19:36.182Z,25
2023-04-03T04:21:42.275Z,13.9
2023-04-03T04:23:48.693Z,10.6
2023-04-03T04:25:54.545Z,14.5
2023-04-03T04:28:00.661Z,11.3
2023-04-03T04:34:21.871Z,23.3
2023-04-03T04:36:28.108Z,10.9
2023-04-03T04:42:46.270Z,16.8
2023-04-03T04:49:07.421Z,11.6
2023-04-03T04:51:13.521Z,9.2
2023-04-03T04:53:19.615Z,16.8
2023-04-03T04:54:24.087Z,18.1
2023-04-03T04:56:30.176Z,15.4
2023-04-03T04:58:36.265Z,24.5
2023-04-03T05:00:42.352Z,13.6
2023-04-03T05:04:57.448Z,21.6
2023-04-03T05:09:09.603Z,17.9
2023-04-03T05:19:42.938Z,23.6
2023-04-03T05:26:01.163Z,14
2023-04-03T05:28:07.281Z,30.7
2023-04-03T05:30:13.359Z,33.6
2023-04-03T05:32:22.313Z,41.2
2023-04-03T05:36:34.506Z,16.8
2023-04-03T05:38:40.590Z,20
2023-04-03T05:40:46.683Z,20.5
2023-04-03T05:42:52.764Z,12.5
2023-04-03T05:47:07.857Z,21.9
2023-04-03T05:52:24.521Z,22.5
2023-04-03T05:56:36.707Z,12.7
2023-04-03T05:58:42.840Z,29.9
2023-04-03T06:00:51.760Z,20.2
2023-04-03T06:02:57.980Z,19.2
2023-04-03T06:05:04.047Z,24.5
2023-04-03T06:07:10.056Z,25.3
2023-04-03T06:11:22.333Z,23.9
2023-04-03T06:13:28.327Z,15
2023-04-03T06:15:37.339Z,11.2
2023-04-03T06:19:49.586Z,8.7
2023-04-03T06:21:55.684Z,29.6
2023-04-03T06:24:01.759Z,14.4
2023-04-03T06:26:07.897Z,13.1
2023-04-03T06:28:14.013Z,12.3
2023-04-03T06:32:29.257Z,17.1
2023-04-03T06:34:35.279Z,9.1
2023-04-03T06:40:53.658Z,8.1
2023-04-03T06:47:14.989Z,19.8
2023-04-03T06:49:21.139Z,7.3
2023-04-03T06:50:25.683Z,12.3
2023-04-03T06:52:31.813Z,8.3
2023-04-03T06:56:44.113Z,14.6
2023-04-03T07:00:59.365Z,6.4
2023-04-03T07:03:05.584Z,3.2
2023-04-03T07:05:11.703Z,22.4
2023-04-03T07:11:30.218Z,14.5
2023-04-03T07:13:39.281Z,10.4
2023-04-03T07:15:45.496Z,30.7
2023-04-03T07:17:51.737Z,6.8
2023-04-03T07:19:57.840Z,14.5
2023-04-03T07:22:04.065Z,6.2
2023-04-03T07:24:13.131Z,6.2
2023-04-03T07:26:16.458Z,4.2
2023-04-03T07:28:25.536Z,4.1
2023-04-03T07:30:31.756Z,5
2023-04-03T07:32:38.006Z,7.2
2023-04-03T07:36:50.408Z,7.3
2023-04-03T07:41:02.875Z,3.1
2023-04-03T07:43:12.045Z,5.4
2023-04-03T07:45:18.281Z,6.6
2023-04-03T07:47:24.570Z,4.9
2023-04-03T07:51:56.546Z,7.3
2023-04-03T07:58:18.152Z,13.4
2023-04-03T08:00:24.464Z,7.6
2023-04-03T08:02:30.822Z,2.2
2023-04-03T08:06:46.802Z,7.1
2023-04-03T08:08:49.311Z,3.9
2023-04-03T08:10:58.306Z,5.8
2023-04-03T08:13:04.502Z,2.9
2023-04-03T08:15:10.734Z,5.5
2023-04-03T08:32:03.230Z,2.9
2023-04-03T08:40:30.923Z,4.4
2023-04-03T08:42:37.169Z,2.7
2023-04-03T08:45:47.970Z,6.8
2023-04-03T08:50:00.367Z,1.8
2023-04-03T08:52:06.622Z,5.4
2023-04-03T08:56:21.891Z,5.2
2023-04-03T08:58:28.096Z,2.1
2023-04-03T09:02:40.626Z,2.6
2023-04-03T09:04:46.819Z,3
2023-04-03T09:06:53.067Z,3.8
2023-04-03T09:15:31.419Z,5
2023-04-03T09:21:41.127Z,1.3
2023-04-03T09:23:50.155Z,4.9
2023-04-03T09:25:56.428Z,2.4
2023-04-03T09:28:02.676Z,5.1
2023-04-03T09:30:08.912Z,1.3
2023-04-03T09:32:15.197Z,4.7
2023-04-03T09:36:27.731Z,10
2023-04-03T09:40:43.027Z,2.8
2023-04-03T09:43:53.830Z,7.6
2023-04-03T10:00:46.748Z,1.4
2023-04-03T10:02:53.164Z,7.3
2023-04-03T10:05:09.322Z,1.6
2023-04-03T10:07:08.328Z,3.9
2023-04-03T10:11:20.821Z,3.8
2023-04-03T10:24:01.209Z,2.2
2023-04-03T10:28:13.703Z,1.2
2023-04-03T10:30:19.954Z,1.4
2023-04-03T10:36:41.567Z,1.6
2023-04-03T10:38:47.846Z,3.9
2023-04-03T10:42:09.373Z,3
2023-04-03T10:44:04.917Z,9.1
2023-04-03T10:46:11.220Z,3.4
2023-04-03T10:50:26.540Z,1.3
2023-04-03T10:52:32.847Z,0.6
2023-04-03T10:54:39.091Z,1.5
2023-04-03T10:56:45.366Z,1.6
2023-04-03T10:58:51.608Z,0.9
2023-04-03T11:00:57.876Z,1.8
2023-04-03T11:03:04.325Z,1.4
2023-04-03T11:05:13.106Z,6
2023-04-03T11:07:19.373Z,1.2
2023-04-03T11:11:31.947Z,5.9
2023-04-03T11:13:38.193Z,9.4
2023-04-03T11:15:44.495Z,1.2
2023-04-03T11:17:50.799Z,3.6
2023-04-03T11:19:59.837Z,1.6
2023-04-03T11:22:06.099Z,2.4
2023-04-03T11:24:12.357Z,0.8
2023-04-03T11:28:24.927Z,5.3
2023-04-03T11:30:31.190Z,2.5
2023-04-03T11:36:52.954Z,1.8
2023-04-03T11:38:59.118Z,1.7
2023-04-03T11:41:25.021Z,3.2
2023-04-03T11:45:37.949Z,1.3
2023-04-03T11:47:46.718Z,2.1
2023-04-03T11:49:52.947Z,1
2023-04-03T11:51:59.227Z,3.3
2023-04-03T11:54:05.556Z,3
2023-04-03T11:58:18.068Z,5.5
2023-04-03T12:00:24.365Z,1.1
2023-04-03T12:02:36.301Z,1.8
2023-04-03T12:04:39.845Z,2.6
2023-04-03T12:06:46.033Z,2.2
2023-04-03T12:08:52.322Z,1.7
2023-04-03T12:13:04.910Z,4
2023-04-03T12:17:20.289Z,4.3
2023-04-03T12:21:32.885Z,2.7
2023-04-03T12:23:39.184Z,3.9
2023-04-03T12:25:45.460Z,1.3
2023-04-03T12:27:51.740Z,3.3
2023-04-03T12:29:58.063Z,2.9
2023-04-03T12:32:07.183Z,2.6
2023-04-03T12:36:19.785Z,4.9
2023-04-03T12:37:24.286Z,1.6
2023-04-03T12:39:30.839Z,8.5
2023-04-03T12:41:36.868Z,2.6
2023-04-03T12:43:43.172Z,3.4
2023-04-03T12:45:52.336Z,0.9
2023-04-03T12:47:58.605Z,6.8
2023-04-03T12:50:04.827Z,2.6
2023-04-03T12:52:11.092Z,5.7
2023-04-03T12:54:17.400Z,3.9
2023-04-03T12:56:26.908Z,1.1
2023-04-03T12:58:29.928Z,3.1
2023-04-03T13:00:39.037Z,3
2023-04-03T13:02:45.375Z,2.7
2023-04-03T13:04:51.597Z,2.4
2023-04-03T13:06:57.886Z,3.2
2023-04-03T13:09:04.148Z,4.3
2023-04-03T13:11:10.439Z,2.8
2023-04-03T13:13:16.697Z,13.9
2023-04-03T13:15:25.847Z,2.2
2023-04-03T13:17:32.143Z,1.6
2023-04-03T13:19:38.333Z,3.5
2023-04-03T13:30:12.565Z,4.5
2023-04-03T13:32:18.838Z,3.1
2023-04-03T13:34:25.124Z,4.8
2023-04-03T13:35:29.665Z,13.8
2023-04-03T13:39:43.247Z,5.5
2023-04-03T13:41:48.514Z,2
2023-04-03T13:44:03.361Z,5.6
2023-04-03T13:46:04.022Z,2.1
2023-04-03T13:48:22.056Z,3.2
2023-04-03T13:50:16.475Z,16
2023-04-03T13:52:22.741Z,4.7
2023-04-03T13:54:29.002Z,2.9
2023-04-03T13:56:35.303Z,5.5
2023-04-03T13:58:44.371Z,5.3
2023-04-03T14:00:50.700Z,3.7
2023-04-03T14:02:56.951Z,7.1
2023-04-03T14:05:03.237Z,3.8
2023-04-03T14:07:09.506Z,4.4
2023-04-03T14:09:15.791Z,11.3
2023-04-03T14:11:22.095Z,3.7
2023-04-03T14:13:31.176Z,2.8
2023-04-03T14:15:37.579Z,1.6
2023-04-03T14:17:43.762Z,1.6
2023-04-03T14:19:50.018Z,4.2
2023-04-03T14:21:56.304Z,6
2023-04-03T14:24:02.590Z,8.8
2023-04-03T14:26:08.861Z,2.9
2023-04-03T14:30:24.246Z,4.7
2023-04-03T14:33:35.078Z,8.1
2023-04-03T14:35:41.361Z,3
2023-04-03T14:37:47.656Z,3.6
2023-04-03T14:39:53.916Z,3.5
2023-04-03T14:42:03.029Z,2.8
2023-04-03T14:44:09.283Z,4.6
2023-04-03T14:46:15.643Z,5.4
2023-04-03T14:48:21.962Z,4.9
2023-04-03T14:50:28.137Z,6
2023-04-03T14:54:40.714Z,4.2
2023-04-03T14:56:49.792Z,3.9
2023-04-03T15:01:02.357Z,2.1
2023-04-03T15:03:08.800Z,4.4
2023-04-03T15:05:14.959Z,4.5
2023-04-03T15:07:21.215Z,6.4
2023-04-03T15:17:55.799Z,5.4
2023-04-03T15:26:25.201Z,8.4
2023-04-03T15:28:31.491Z,4.2
2023-04-03T15:30:38.017Z,3.4
2023-04-03T15:33:01.929Z,5.3
2023-04-03T15:35:07.863Z,5
2023-04-03T15:37:14.133Z,4.1
2023-04-03T15:43:36.257Z,3.6
2023-04-03T15:45:42.585Z,5.4
2023-04-03T15:47:48.929Z,4.8
2023-04-03T15:54:10.621Z,2.5
2023-04-03T16:00:29.478Z,3.8
2023-04-03T16:02:35.844Z,7.2
2023-04-03T16:04:42.096Z,6.7
2023-04-03T16:06:48.323Z,10.1
2023-04-03T16:08:57.721Z,9.7
2023-04-03T16:11:03.735Z,2.2
2023-04-03T16:13:10.027Z,4.1
2023-04-03T16:15:16.340Z,3
2023-04-03T16:17:22.614Z,2
2023-04-03T16:19:28.928Z,3.6
2023-04-03T16:21:35.205Z,9.2
2023-04-03T16:23:44.314Z,4.9
2023-04-03T16:25:50.635Z,5.3
2023-04-03T16:27:56.916Z,2.7
2023-04-03T16:29:01.545Z,5.5
2023-04-03T16:35:20.378Z,4.7
2023-04-03T16:37:30.540Z,2.5
2023-04-03T16:39:35.756Z,4.1
2023-04-03T16:41:42.061Z,3.6
2023-04-03T16:43:48.336Z,1.6
2023-04-03T16:45:54.625Z,3.5
2023-04-03T16:48:00.995Z,4.3
2023-04-03T16:50:07.323Z,9.6
2023-04-03T16:52:16.347Z,5.9
2023-04-03T16:54:22.613Z,2.7
2023-04-03T16:56:28.902Z,6.2
2023-04-03T16:58:35.208Z,3.4
2023-04-03T17:00:41.522Z,8.7
2023-04-03T17:02:47.815Z,3.3
2023-04-03T17:04:54.079Z,3.2
2023-04-03T17:09:09.476Z,4.2
2023-04-03T17:11:15.753Z,4.3
2023-04-03T17:23:56.321Z,4.4
2023-04-03T17:26:02.664Z,1.7
2023-04-03T17:27:07.190Z,5.5
2023-04-03T17:29:13.482Z,2
2023-04-03T17:31:19.763Z,3.6
2023-04-03T17:33:26.054Z,13
2023-04-03T17:35:35.179Z,5.5
2023-04-03T17:37:41.437Z,3.6
2023-04-03T17:41:54.013Z,9.7
2023-04-03T17:48:12.870Z,11.7
2023-04-03T17:50:21.884Z,7.6
2023-04-03T17:52:28.139Z,2.2
2023-04-03T17:58:47.008Z,6.6
2023-04-03T18:00:53.220Z,8.7
2023-04-03T18:02:59.517Z,5.3
2023-04-03T18:17:46.112Z,8.6
2023-04-03T18:25:12.030Z,8.1
2023-04-03T18:35:46.145Z,10.6
2023-04-03T18:37:52.366Z,8.7
2023-04-03T18:42:04.794Z,10
2023-04-03T18:44:11.023Z,8.3
2023-04-03T18:48:26.326Z,3.7
2023-04-03T18:50:32.544Z,6.1
2023-04-03T18:52:38.850Z,7.8
2023-04-03T18:54:45.160Z,9
2023-04-03T18:58:57.695Z,10.5
2023-04-03T19:03:13.086Z,9
2023-04-03T19:05:19.251Z,8.8
2023-04-03T19:07:25.465Z,11.6
2023-04-03T19:09:31.752Z,10.3
2023-04-03T19:11:38.038Z,7.5
2023-04-03T19:13:46.934Z,6.5
2023-04-03T19:15:50.519Z,8.2
2023-04-03T19:17:59.619Z,3.7
2023-04-03T19:20:05.826Z,13.2
2023-04-03T19:22:12.387Z,4
2023-04-03T19:26:44.068Z,7.6
2023-04-03T19:33:05.895Z,8.8
2023-04-03T19:37:18.341Z,9.4
2023-04-03T19:41:30.920Z,8.6
2023-04-03T19:43:37.158Z,5.9
2023-04-03T19:45:46.365Z,12.2
2023-04-03T19:52:05.137Z,6.7
2023-04-03T19:54:11.382Z,21.5
2023-04-03T19:56:17.665Z,7.1
2023-04-03T20:06:51.839Z,31.4
2023-04-03T20:08:58.117Z,31
2023-04-03T20:11:04.346Z,56.2
2023-04-03T20:15:19.741Z,65.3
2023-04-03T20:17:26.063Z,78.5
2023-04-03T20:19:32.255Z,125.9
2023-04-03T20:20:36.887Z,62.1
2023-04-03T20:29:04.681Z,7.6
2023-04-03T20:33:17.160Z,7.1
2023-04-03T20:37:29.626Z,5.5
2023-04-03T20:43:51.223Z,18.2
2023-04-03T20:48:03.711Z,11
2023-04-03T20:54:22.351Z,8.7
2023-04-03T20:56:28.571Z,10.6
2023-04-03T20:58:37.697Z,4
2023-04-03T21:00:44.040Z,8
2023-04-03T21:02:50.241Z,8.4
2023-04-03T21:09:08.780Z,8.9
2023-04-03T21:11:15.004Z,8.8
2023-04-03T21:15:30.343Z,23.5
2023-04-03T21:18:41.114Z,6.8
2023-04-03T21:20:47.553Z,6.8
2023-04-03T21:22:53.552Z,9
2023-04-03T21:39:47.708Z,5.9
2023-04-03T21:50:21.627Z,10.4
2023-04-03T21:54:34.026Z,12.5
2023-04-03T21:58:49.410Z,14.9
2023-04-03T22:00:55.550Z,7
2023-04-03T22:03:10.079Z,7.2
2023-04-03T22:05:08.048Z,9.3
2023-04-03T22:07:14.122Z,5.9
2023-04-03T22:09:20.360Z,6.3
2023-04-03T22:11:29.443Z,18.3
2023-04-03T22:15:41.812Z,8.2
2023-04-03T22:16:46.382Z,11.1
2023-04-03T22:20:58.735Z,9.6
2023-04-03T22:23:04.942Z,10.3
2023-04-03T22:29:26.407Z,8.1
2023-04-03T22:31:32.565Z,8.5
2023-04-03T22:33:38.775Z,8.7
2023-04-03T22:35:44.935Z,7.3
2023-04-03T22:37:51.107Z,15
2023-04-03T22:40:00.170Z,6.6
2023-04-03T22:42:06.366Z,12.5
2023-04-03T22:44:12.528Z,7.8
2023-04-03T22:46:18.746Z,14.4
2023-04-03T22:48:24.871Z,16.8
2023-04-03T22:50:31.051Z,14.3
2023-04-03T22:52:37.232Z,13.2
2023-04-03T22:54:46.290Z,7
2023-04-03T22:56:54.777Z,15.6
2023-04-03T22:58:58.642Z,9.3
2023-04-03T23:01:07.957Z,7.5
2023-04-03T23:03:11.392Z,9.1
2023-04-03T23:05:17.172Z,10.3
2023-04-03T23:11:38.562Z,7.4
2023-04-03T23:20:17.200Z,6.7
2023-04-03T23:28:44.728Z,13
2023-04-03T23:32:57.089Z,13.7
2023-04-03T23:37:12.284Z,15.6
2023-04-03T23:39:18.441Z,8.8
2023-04-03T23:41:24.600Z,16.2
2023-04-03T23:43:30.751Z,9.3
2023-04-03T23:45:36.903Z,9.5
2023-04-03T23:47:46.234Z,18
2023-04-03T23:49:49.229Z,8.4
2023-04-03T23:51:58.279Z,13
2023-04-03T23:54:04.428Z,11.5
2023-04-03T23:56:10.608Z,13.8
